sensor_id;sensor_type;location;lat;lon;timestamp;pressure;altitude;pressure_sealevel;temperature;humidity
10135;BME280;5107;48.850;8.924;2022-12-13T00:01:16;96132.16;;;-5.40;84.02
10135;BME280;5107;48.850;8.924;2022-12-13T00:03:43;96126.97;;;-5.39;84.08
10135;BME280;5107;48.850;8.924;2022-12-13T00:06:11;96121.19;;;-5.42;83.96
10135;BME280;5107;48.850;8.924;2022-12-13T00:08:38;96122.09;;;-5.43;84.27
10135;BME280;5107;48.850;8.924;2022-12-13T00:11:09;96123.09;;;-5.46;84.87
10135;BME280;5107;48.850;8.924;2022-12-13T00:13:37;96117.16;;;-5.46;84.88
10135;BME280;5107;48.850;8.924;2022-12-13T00:16:09;96123.19;;;-5.47;84.85
10135;BME280;5107;48.850;8.924;2022-12-13T00:18:36;96128.56;;;-5.52;84.84
10135;BME280;5107;48.850;8.924;2022-12-13T00:21:05;96132.78;;;-5.51;84.86
10135;BME280;5107;48.850;8.924;2022-12-13T00:23:33;96122.44;;;-5.49;84.80
10135;BME280;5107;48.850;8.924;2022-12-13T00:26:02;96117.91;;;-5.44;84.81
10135;BME280;5107;48.850;8.924;2022-12-13T00:28:30;96118.44;;;-5.39;84.70
10135;BME280;5107;48.850;8.924;2022-12-13T00:31:01;96126.50;;;-5.45;84.20
10135;BME280;5107;48.850;8.924;2022-12-13T00:33:29;96116.06;;;-5.42;84.37
10135;BME280;5107;48.850;8.924;2022-12-13T00:35:56;96114.41;;;-5.43;84.24
10135;BME280;5107;48.850;8.924;2022-12-13T00:38:24;96115.13;;;-5.41;84.34
10135;BME280;5107;48.850;8.924;2022-12-13T00:40:51;96113.41;;;-5.41;84.52
10135;BME280;5107;48.850;8.924;2022-12-13T00:43:18;96116.97;;;-5.43;84.69
10135;BME280;5107;48.850;8.924;2022-12-13T00:45:48;96116.69;;;-5.53;84.21
10135;BME280;5107;48.850;8.924;2022-12-13T00:48:15;96111.41;;;-5.65;84.92
10135;BME280;5107;48.850;8.924;2022-12-13T00:50:44;96105.47;;;-5.66;85.52
10135;BME280;5107;48.850;8.924;2022-12-13T00:53:11;96096.03;;;-5.65;85.35
10135;BME280;5107;48.850;8.924;2022-12-13T00:55:40;96084.06;;;-5.65;85.63
10135;BME280;5107;48.850;8.924;2022-12-13T00:58:07;96084.16;;;-5.66;86.46
10135;BME280;5107;48.850;8.924;2022-12-13T01:00:35;96085.81;;;-5.65;87.03
10135;BME280;5107;48.850;8.924;2022-12-13T01:03:02;96089.75;;;-5.60;86.82
10135;BME280;5107;48.850;8.924;2022-12-13T01:05:47;96090.31;;;-5.55;86.29
10135;BME280;5107;48.850;8.924;2022-12-13T01:08:14;96082.72;;;-5.56;85.97
10135;BME280;5107;48.850;8.924;2022-12-13T01:10:43;96074.94;;;-5.55;85.76
10135;BME280;5107;48.850;8.924;2022-12-13T01:13:10;96074.75;;;-5.52;85.66
10135;BME280;5107;48.850;8.924;2022-12-13T01:15:40;96074.03;;;-5.54;85.22
10135;BME280;5107;48.850;8.924;2022-12-13T01:18:08;96080.00;;;-5.53;85.16
10135;BME280;5107;48.850;8.924;2022-12-13T01:20:36;96086.03;;;-5.54;85.41
10135;BME280;5107;48.850;8.924;2022-12-13T01:23:06;96087.47;;;-5.50;84.93
10135;BME280;5107;48.850;8.924;2022-12-13T01:25:33;96092.81;;;-5.53;85.02
10135;BME280;5107;48.850;8.924;2022-12-13T01:28:03;96092.22;;;-5.58;85.11
10135;BME280;5107;48.850;8.924;2022-12-13T01:30:30;96089.03;;;-5.62;84.94
10135;BME280;5107;48.850;8.924;2022-12-13T01:32:58;96092.56;;;-5.64;85.16
10135;BME280;5107;48.850;8.924;2022-12-13T01:35:25;96095.66;;;-5.74;84.97
10135;BME280;5107;48.850;8.924;2022-12-13T01:37:52;96087.50;;;-5.80;86.08
10135;BME280;5107;48.850;8.924;2022-12-13T01:40:21;96091.06;;;-5.83;85.97
10135;BME280;5107;48.850;8.924;2022-12-13T01:42:48;96087.59;;;-5.82;86.38
10135;BME280;5107;48.850;8.924;2022-12-13T01:45:24;96085.41;;;-5.88;86.71
10135;BME280;5107;48.850;8.924;2022-12-13T01:47:55;96082.72;;;-5.86;86.22
10135;BME280;5107;48.850;8.924;2022-12-13T01:50:29;96079.47;;;-5.88;87.04
10135;BME280;5107;48.850;8.924;2022-12-13T01:52:59;96087.03;;;-5.87;87.51
10135;BME280;5107;48.850;8.924;2022-12-13T01:55:30;96086.09;;;-5.86;87.60
10135;BME280;5107;48.850;8.924;2022-12-13T01:58:01;96077.34;;;-5.82;87.31
10135;BME280;5107;48.850;8.924;2022-12-13T02:00:29;96074.63;;;-5.79;87.06
10135;BME280;5107;48.850;8.924;2022-12-13T02:02:57;96066.19;;;-5.81;86.67
10135;BME280;5107;48.850;8.924;2022-12-13T02:05:30;96063.78;;;-5.84;86.46
10135;BME280;5107;48.850;8.924;2022-12-13T02:08:00;96064.19;;;-5.90;86.18
10135;BME280;5107;48.850;8.924;2022-12-13T02:10:30;96061.69;;;-5.91;86.55
10135;BME280;5107;48.850;8.924;2022-12-13T02:12:58;96066.81;;;-5.91;86.85
10135;BME280;5107;48.850;8.924;2022-12-13T02:15:33;96057.16;;;-6.02;86.70
10135;BME280;5107;48.850;8.924;2022-12-13T02:18:20;96056.03;;;-5.96;86.73
10135;BME280;5107;48.850;8.924;2022-12-13T02:21:27;96062.22;;;-6.00;86.55
10135;BME280;5107;48.850;8.924;2022-12-13T02:24:34;96058.19;;;-6.04;87.21
10135;BME280;5107;48.850;8.924;2022-12-13T02:27:19;96057.88;;;-6.14;87.81
10135;BME280;5107;48.850;8.924;2022-12-13T02:30:20;96058.38;;;-6.23;87.51
10135;BME280;5107;48.850;8.924;2022-12-13T02:33:14;96054.19;;;-6.40;87.72
10135;BME280;5107;48.850;8.924;2022-12-13T02:35:51;96056.34;;;-6.48;89.04
10135;BME280;5107;48.850;8.924;2022-12-13T02:38:28;96050.41;;;-6.48;88.91
10135;BME280;5107;48.850;8.924;2022-12-13T02:41:05;96048.66;;;-6.48;89.04
10135;BME280;5107;48.850;8.924;2022-12-13T02:43:43;96045.94;;;-6.45;88.97
10135;BME280;5107;48.850;8.924;2022-12-13T02:46:14;96051.22;;;-6.48;89.07
10135;BME280;5107;48.850;8.924;2022-12-13T02:48:42;96051.06;;;-6.45;89.03
10135;BME280;5107;48.850;8.924;2022-12-13T02:51:11;96053.50;;;-6.43;89.18
10135;BME280;5107;48.850;8.924;2022-12-13T02:53:40;96051.56;;;-6.38;88.94
10135;BME280;5107;48.850;8.924;2022-12-13T02:56:07;96054.84;;;-6.36;89.10
10135;BME280;5107;48.850;8.924;2022-12-13T02:58:41;96045.34;;;-6.34;88.80
10135;BME280;5107;48.850;8.924;2022-12-13T03:01:39;96039.81;;;-6.42;89.28
10135;BME280;5107;48.850;8.924;2022-12-13T03:04:22;96044.88;;;-6.57;88.83
10135;BME280;5107;48.850;8.924;2022-12-13T03:07:00;96038.84;;;-6.56;88.89
10135;BME280;5107;48.850;8.924;2022-12-13T03:09:42;96033.16;;;-6.61;89.07
10135;BME280;5107;48.850;8.924;2022-12-13T03:12:24;96027.31;;;-6.63;89.06
10135;BME280;5107;48.850;8.924;2022-12-13T03:15:19;96015.09;;;-6.58;89.35
10135;BME280;5107;48.850;8.924;2022-12-13T03:17:53;96016.00;;;-6.59;88.85
10135;BME280;5107;48.850;8.924;2022-12-13T03:20:24;96010.81;;;-6.57;89.03
10135;BME280;5107;48.850;8.924;2022-12-13T03:22:52;96013.28;;;-6.56;88.91
10135;BME280;5107;48.850;8.924;2022-12-13T03:25:20;96019.47;;;-6.60;89.08
10135;BME280;5107;48.850;8.924;2022-12-13T03:27:48;96028.56;;;-6.70;89.54
10135;BME280;5107;48.850;8.924;2022-12-13T03:30:15;96025.66;;;-6.79;89.41
10135;BME280;5107;48.850;8.924;2022-12-13T03:32:43;96014.44;;;-6.77;89.41
10135;BME280;5107;48.850;8.924;2022-12-13T03:35:11;96021.38;;;-6.79;89.23
10135;BME280;5107;48.850;8.924;2022-12-13T03:37:38;96014.44;;;-6.77;89.22
10135;BME280;5107;48.850;8.924;2022-12-13T03:40:06;96018.56;;;-6.74;89.59
10135;BME280;5107;48.850;8.924;2022-12-13T03:42:34;96010.81;;;-6.73;89.85
10135;BME280;5107;48.850;8.924;2022-12-13T03:45:01;96008.75;;;-6.82;88.52
10135;BME280;5107;48.850;8.924;2022-12-13T03:47:28;96016.75;;;-6.88;88.61
10135;BME280;5107;48.850;8.924;2022-12-13T03:49:55;96011.44;;;-7.01;88.76
10135;BME280;5107;48.850;8.924;2022-12-13T03:52:23;96011.63;;;-7.04;88.67
10135;BME280;5107;48.850;8.924;2022-12-13T03:54:50;96011.94;;;-7.10;88.62
10135;BME280;5107;48.850;8.924;2022-12-13T03:57:17;96000.25;;;-7.14;88.56
10135;BME280;5107;48.850;8.924;2022-12-13T03:59:44;95997.28;;;-7.06;88.98
10135;BME280;5107;48.850;8.924;2022-12-13T04:02:11;96003.78;;;-7.01;89.28
10135;BME280;5107;48.850;8.924;2022-12-13T04:04:38;95997.97;;;-6.87;89.42
10135;BME280;5107;48.850;8.924;2022-12-13T04:07:05;96003.63;;;-6.82;89.89
10135;BME280;5107;48.850;8.924;2022-12-13T04:09:34;95999.09;;;-6.77;89.83
10135;BME280;5107;48.850;8.924;2022-12-13T04:12:01;96000.66;;;-6.74;89.87
10135;BME280;5107;48.850;8.924;2022-12-13T04:14:44;95993.81;;;-6.74;90.23
10135;BME280;5107;48.850;8.924;2022-12-13T04:17:12;95997.34;;;-6.76;90.35
10135;BME280;5107;48.850;8.924;2022-12-13T04:19:39;96006.59;;;-6.74;90.10
10135;BME280;5107;48.850;8.924;2022-12-13T04:22:06;96006.53;;;-6.72;89.94
10135;BME280;5107;48.850;8.924;2022-12-13T04:24:34;96007.00;;;-6.66;89.92
10135;BME280;5107;48.850;8.924;2022-12-13T04:27:03;96009.81;;;-6.55;89.74
10135;BME280;5107;48.850;8.924;2022-12-13T04:29:30;96003.22;;;-6.59;89.79
10135;BME280;5107;48.850;8.924;2022-12-13T04:31:57;96007.34;;;-6.56;89.64
10135;BME280;5107;48.850;8.924;2022-12-13T04:34:24;96001.41;;;-6.57;89.43
10135;BME280;5107;48.850;8.924;2022-12-13T04:36:51;96001.47;;;-6.58;89.21
10135;BME280;5107;48.850;8.924;2022-12-13T04:39:18;96009.09;;;-6.72;88.97
10135;BME280;5107;48.850;8.924;2022-12-13T04:41:46;96002.88;;;-6.68;89.55
10135;BME280;5107;48.850;8.924;2022-12-13T04:44:13;96003.63;;;-6.66;89.31
10135;BME280;5107;48.850;8.924;2022-12-13T04:46:41;95996.94;;;-6.69;89.12
10135;BME280;5107;48.850;8.924;2022-12-13T04:49:08;95996.94;;;-6.69;89.11
10135;BME280;5107;48.850;8.924;2022-12-13T04:51:35;96005.28;;;-6.65;89.30
10135;BME280;5107;48.850;8.924;2022-12-13T04:54:02;96003.13;;;-6.57;88.88
10135;BME280;5107;48.850;8.924;2022-12-13T04:56:29;96003.22;;;-6.59;88.93
10135;BME280;5107;48.850;8.924;2022-12-13T04:58:58;95996.63;;;-6.63;88.88
10135;BME280;5107;48.850;8.924;2022-12-13T05:01:25;96006.59;;;-6.58;89.01
10135;BME280;5107;48.850;8.924;2022-12-13T05:03:52;95999.19;;;-6.63;88.82
10135;BME280;5107;48.850;8.924;2022-12-13T05:06:19;95993.31;;;-6.65;88.96
10135;BME280;5107;48.850;8.924;2022-12-13T05:08:47;95996.94;;;-6.69;88.98
10135;BME280;5107;48.850;8.924;2022-12-13T05:11:14;95991.94;;;-6.70;89.01
10135;BME280;5107;48.850;8.924;2022-12-13T05:13:41;95998.78;;;-6.71;88.94
10135;BME280;5107;48.850;8.924;2022-12-13T05:16:09;95998.78;;;-6.71;89.25
10135;BME280;5107;48.850;8.924;2022-12-13T05:18:37;95994.38;;;-6.69;89.12
10135;BME280;5107;48.850;8.924;2022-12-13T05:21:06;95989.94;;;-6.65;88.87
10135;BME280;5107;48.850;8.924;2022-12-13T05:23:34;95997.13;;;-6.72;89.13
10135;BME280;5107;48.850;8.924;2022-12-13T05:26:01;95989.19;;;-6.67;88.95
10135;BME280;5107;48.850;8.924;2022-12-13T05:28:28;95987.66;;;-6.70;89.13
10135;BME280;5107;48.850;8.924;2022-12-13T05:30:59;95983.75;;;-6.77;89.49
10135;BME280;5107;48.850;8.924;2022-12-13T05:33:32;95983.94;;;-6.80;89.39
10135;BME280;5107;48.850;8.924;2022-12-13T05:35:59;95989.94;;;-6.81;89.31
10135;BME280;5107;48.850;8.924;2022-12-13T05:38:27;95974.78;;;-6.84;89.11
10135;BME280;5107;48.850;8.924;2022-12-13T05:40:54;95975.53;;;-6.82;89.43
10135;BME280;5107;48.850;8.924;2022-12-13T05:43:21;95980.63;;;-6.82;89.44
10135;BME280;5107;48.850;8.924;2022-12-13T05:45:49;95984.09;;;-6.83;89.37
10135;BME280;5107;48.850;8.924;2022-12-13T05:48:16;95982.28;;;-6.81;89.46
10135;BME280;5107;48.850;8.924;2022-12-13T05:50:44;95985.91;;;-6.85;89.62
10135;BME280;5107;48.850;8.924;2022-12-13T05:53:11;95976.28;;;-6.80;89.13
10135;BME280;5107;48.850;8.924;2022-12-13T05:55:38;95970.25;;;-6.79;89.25
10135;BME280;5107;48.850;8.924;2022-12-13T05:58:05;95974.78;;;-6.84;89.41
10135;BME280;5107;48.850;8.924;2022-12-13T06:00:32;95972.28;;;-6.85;89.03
10135;BME280;5107;48.850;8.924;2022-12-13T06:02:59;95972.56;;;-6.90;89.45
10135;BME280;5107;48.850;8.924;2022-12-13T06:05:27;95980.06;;;-6.87;89.31
10135;BME280;5107;48.850;8.924;2022-12-13T06:07:56;95973.31;;;-6.88;89.29
10135;BME280;5107;48.850;8.924;2022-12-13T06:10:23;95976.84;;;-6.91;89.41
10135;BME280;5107;48.850;8.924;2022-12-13T06:12:50;95976.50;;;-6.84;89.22
10135;BME280;5107;48.850;8.924;2022-12-13T06:15:17;95977.41;;;-6.85;88.87
10135;BME280;5107;48.850;8.924;2022-12-13T06:17:44;95977.66;;;-6.90;88.74
10135;BME280;5107;48.850;8.924;2022-12-13T06:20:11;95973.72;;;-6.96;89.29
10135;BME280;5107;48.850;8.924;2022-12-13T06:22:38;95975.44;;;-6.96;89.18
10135;BME280;5107;48.850;8.924;2022-12-13T06:25:07;95971.56;;;-7.03;88.73
10135;BME280;5107;48.850;8.924;2022-12-13T06:27:35;95964.81;;;-7.04;89.04
10135;BME280;5107;48.850;8.924;2022-12-13T06:30:03;95976.91;;;-7.08;89.00
10135;BME280;5107;48.850;8.924;2022-12-13T06:32:30;95970.81;;;-7.05;89.20
10135;BME280;5107;48.850;8.924;2022-12-13T06:34:57;95979.31;;;-7.05;89.19
10135;BME280;5107;48.850;8.924;2022-12-13T06:37:24;95971.81;;;-7.08;89.71
10135;BME280;5107;48.850;8.924;2022-12-13T06:39:51;95965.88;;;-7.08;89.66
10135;BME280;5107;48.850;8.924;2022-12-13T06:42:19;95970.34;;;-7.12;89.29
10135;BME280;5107;48.850;8.924;2022-12-13T06:44:46;95969.59;;;-7.14;89.26
10135;BME280;5107;48.850;8.924;2022-12-13T06:47:16;95975.34;;;-7.10;89.65
10135;BME280;5107;48.850;8.924;2022-12-13T06:49:43;95984.66;;;-7.09;89.87
10135;BME280;5107;48.850;8.924;2022-12-13T06:52:12;95986.72;;;-7.16;89.88
10135;BME280;5107;48.850;8.924;2022-12-13T06:54:40;95983.41;;;-7.18;90.27
10135;BME280;5107;48.850;8.924;2022-12-13T06:57:08;95986.16;;;-7.21;89.49
10135;BME280;5107;48.850;8.924;2022-12-13T06:59:37;95986.56;;;-7.29;89.04
10135;BME280;5107;48.850;8.924;2022-12-13T07:02:04;95994.75;;;-7.39;89.23
10135;BME280;5107;48.850;8.924;2022-12-13T07:04:31;95998.53;;;-7.46;89.19
10135;BME280;5107;48.850;8.924;2022-12-13T07:06:59;96005.06;;;-7.41;89.82
10135;BME280;5107;48.850;8.924;2022-12-13T07:09:27;95998.16;;;-7.39;90.20
10135;BME280;5107;48.850;8.924;2022-12-13T07:11:55;95997.75;;;-7.31;89.95
10135;BME280;5107;48.850;8.924;2022-12-13T07:14:22;96004.19;;;-7.24;90.15
10135;BME280;5107;48.850;8.924;2022-12-13T07:16:50;96005.91;;;-7.09;89.67
10135;BME280;5107;48.850;8.924;2022-12-13T07:19:17;96011.28;;;-7.13;88.84
10135;BME280;5107;48.850;8.924;2022-12-13T07:21:44;96006.81;;;-7.10;88.85
10135;BME280;5107;48.850;8.924;2022-12-13T07:24:11;95999.91;;;-7.08;88.92
10135;BME280;5107;48.850;8.924;2022-12-13T07:26:38;96001.72;;;-6.94;89.39
10135;BME280;5107;48.850;8.924;2022-12-13T07:29:06;95994.16;;;-6.80;89.83
10135;BME280;5107;48.850;8.924;2022-12-13T07:31:34;96000.25;;;-6.67;89.80
10135;BME280;5107;48.850;8.924;2022-12-13T07:34:03;96000.91;;;-6.47;89.94
10135;BME280;5107;48.850;8.924;2022-12-13T07:36:30;96005.31;;;-6.35;89.55
10135;BME280;5107;48.850;8.924;2022-12-13T07:38:57;96008.25;;;-6.11;89.19
10135;BME280;5107;48.850;8.924;2022-12-13T07:41:26;96011.28;;;-6.05;87.52
10135;BME280;5107;48.850;8.924;2022-12-13T07:43:54;96012.19;;;-6.06;86.43
10135;BME280;5107;48.850;8.924;2022-12-13T07:46:22;96018.97;;;-6.05;85.96
10135;BME280;5107;48.850;8.924;2022-12-13T07:48:49;96022.00;;;-5.98;86.06
10135;BME280;5107;48.850;8.924;2022-12-13T07:51:18;96024.22;;;-5.92;85.80
10135;BME280;5107;48.850;8.924;2022-12-13T07:53:45;96024.13;;;-5.77;85.21
10135;BME280;5107;48.850;8.924;2022-12-13T07:56:12;96029.53;;;-5.67;85.42
10135;BME280;5107;48.850;8.924;2022-12-13T07:58:42;96034.09;;;-5.14;93.11
10135;BME280;5107;48.850;8.924;2022-12-13T08:01:10;96035.66;;;-5.11;89.66
10135;BME280;5107;48.850;8.924;2022-12-13T08:03:38;96025.56;;;-5.28;83.92
10135;BME280;5107;48.850;8.924;2022-12-13T08:06:08;96021.91;;;-5.24;83.42
10135;BME280;5107;48.850;8.924;2022-12-13T08:08:38;96022.00;;;-5.26;81.11
10135;BME280;5107;48.850;8.924;2022-12-13T08:11:07;96025.13;;;-5.07;82.47
10135;BME280;5107;48.850;8.924;2022-12-13T08:13:35;96024.81;;;-4.88;81.53
10135;BME280;5107;48.850;8.924;2022-12-13T08:16:06;96024.28;;;-4.79;80.06
10135;BME280;5107;48.850;8.924;2022-12-13T08:18:34;96031.59;;;-4.87;80.68
10135;BME280;5107;48.850;8.924;2022-12-13T08:21:03;96028.56;;;-4.79;81.90
10135;BME280;5107;48.850;8.924;2022-12-13T08:23:32;96034.94;;;-4.44;81.28
10135;BME280;5107;48.850;8.924;2022-12-13T08:26:01;96031.31;;;-4.27;79.48
10135;BME280;5107;48.850;8.924;2022-12-13T08:28:31;96040.38;;;-4.09;77.95
10135;BME280;5107;48.850;8.924;2022-12-13T08:31:03;96026.94;;;-4.00;77.64
10135;BME280;5107;48.850;8.924;2022-12-13T08:33:32;96027.75;;;-3.85;77.99
10135;BME280;5107;48.850;8.924;2022-12-13T08:36:08;96029.81;;;-3.65;76.74
10135;BME280;5107;48.850;8.924;2022-12-13T08:38:38;96022.84;;;-3.63;74.86
10135;BME280;5107;48.850;8.924;2022-12-13T08:41:06;96024.69;;;-3.52;73.75
10135;BME280;5107;48.850;8.924;2022-12-13T08:43:34;96029.66;;;-3.36;73.11
10135;BME280;5107;48.850;8.924;2022-12-13T08:46:01;96038.47;;;-3.40;73.06
10135;BME280;5107;48.850;8.924;2022-12-13T08:48:29;96038.38;;;-3.26;72.87
10135;BME280;5107;48.850;8.924;2022-12-13T08:51:00;96039.00;;;-3.10;71.37
10135;BME280;5107;48.850;8.924;2022-12-13T08:53:27;96026.16;;;-3.10;71.27
10135;BME280;5107;48.850;8.924;2022-12-13T08:55:59;96026.25;;;-3.12;71.25
10135;BME280;5107;48.850;8.924;2022-12-13T08:58:29;96035.50;;;-3.09;71.18
10135;BME280;5107;48.850;8.924;2022-12-13T09:00:56;96045.16;;;-3.00;71.50
10135;BME280;5107;48.850;8.924;2022-12-13T09:03:24;96037.75;;;-3.17;72.27
10135;BME280;5107;48.850;8.924;2022-12-13T09:05:51;96031.31;;;-3.10;70.79
10135;BME280;5107;48.850;8.924;2022-12-13T09:08:18;96028.41;;;-3.31;72.55
10135;BME280;5107;48.850;8.924;2022-12-13T09:10:45;96030.78;;;-3.28;71.85
10135;BME280;5107;48.850;8.924;2022-12-13T09:13:21;96030.56;;;-3.25;72.28
10135;BME280;5107;48.850;8.924;2022-12-13T09:15:53;96028.22;;;-3.28;72.54
10135;BME280;5107;48.850;8.924;2022-12-13T09:18:20;96035.00;;;-3.14;72.91
10135;BME280;5107;48.850;8.924;2022-12-13T09:20:47;96034.78;;;-2.86;76.74
10135;BME280;5107;48.850;8.924;2022-12-13T09:23:15;96025.25;;;-2.60;76.74
10135;BME280;5107;48.850;8.924;2022-12-13T09:25:42;96026.41;;;-2.40;72.76
10135;BME280;5107;48.850;8.924;2022-12-13T09:28:09;96026.81;;;-2.70;70.97
10135;BME280;5107;48.850;8.924;2022-12-13T09:30:37;96030.13;;;-2.81;71.13
10135;BME280;5107;48.850;8.924;2022-12-13T09:33:06;96040.22;;;-2.78;72.31
10135;BME280;5107;48.850;8.924;2022-12-13T09:35:36;96035.56;;;-2.60;71.67
10135;BME280;5107;48.850;8.924;2022-12-13T09:38:03;96035.16;;;-2.79;71.05
10135;BME280;5107;48.850;8.924;2022-12-13T09:40:31;96034.09;;;-2.51;76.00
10135;BME280;5107;48.850;8.924;2022-12-13T09:43:00;96035.31;;;-2.44;71.92
10135;BME280;5107;48.850;8.924;2022-12-13T09:45:28;96037.50;;;-2.27;70.28
10135;BME280;5107;48.850;8.924;2022-12-13T09:47:57;96035.06;;;-2.41;70.12
10135;BME280;5107;48.850;8.924;2022-12-13T09:50:31;96045.22;;;-2.76;70.47
10135;BME280;5107;48.850;8.924;2022-12-13T09:52:59;96039.69;;;-2.83;71.12
10135;BME280;5107;48.850;8.924;2022-12-13T09:55:31;96031.47;;;-2.88;71.55
10135;BME280;5107;48.850;8.924;2022-12-13T09:58:11;96033.34;;;-3.02;72.49
10135;BME280;5107;48.850;8.924;2022-12-13T10:00:40;96033.53;;;-2.93;73.23
10135;BME280;5107;48.850;8.924;2022-12-13T10:03:12;96035.31;;;-2.93;73.78
10135;BME280;5107;48.850;8.924;2022-12-13T10:05:50;96025.75;;;-2.68;73.93
10135;BME280;5107;48.850;8.924;2022-12-13T10:08:24;96020.94;;;-2.72;71.72
10135;BME280;5107;48.850;8.924;2022-12-13T10:10:53;96018.03;;;-2.55;71.92
10135;BME280;5107;48.850;8.924;2022-12-13T10:13:24;96019.13;;;-2.46;71.10
10135;BME280;5107;48.850;8.924;2022-12-13T10:15:59;96008.72;;;-2.45;70.99
10135;BME280;5107;48.850;8.924;2022-12-13T10:18:33;96015.03;;;-2.25;71.59
10135;BME280;5107;48.850;8.924;2022-12-13T10:21:10;96004.34;;;-2.08;70.88
10135;BME280;5107;48.850;8.924;2022-12-13T10:23:38;96010.09;;;-2.04;70.93
10135;BME280;5107;48.850;8.924;2022-12-13T10:26:09;96006.44;;;-2.37;69.40
10135;BME280;5107;48.850;8.924;2022-12-13T10:28:40;96004.75;;;-2.61;71.40
10135;BME280;5107;48.850;8.924;2022-12-13T10:31:14;96001.66;;;-3.03;71.60
10135;BME280;5107;48.850;8.924;2022-12-13T10:33:50;95990.22;;;-2.99;73.84
10135;BME280;5107;48.850;8.924;2022-12-13T10:36:33;95994.34;;;-2.96;73.88
10135;BME280;5107;48.850;8.924;2022-12-13T10:39:01;95989.50;;;-3.01;73.53
10135;BME280;5107;48.850;8.924;2022-12-13T10:41:34;95987.19;;;-2.80;73.59
10135;BME280;5107;48.850;8.924;2022-12-13T10:44:20;95986.72;;;-2.85;72.77
10135;BME280;5107;48.850;8.924;2022-12-13T10:47:15;95982.72;;;-3.02;73.67
10135;BME280;5107;48.850;8.924;2022-12-13T10:49:51;95978.59;;;-3.04;73.53
10135;BME280;5107;48.850;8.924;2022-12-13T10:52:25;95984.69;;;-3.06;73.11
10135;BME280;5107;48.850;8.924;2022-12-13T10:54:53;95967.69;;;-3.08;73.42
10135;BME280;5107;48.850;8.924;2022-12-13T10:57:21;95970.25;;;-2.95;73.98
10135;BME280;5107;48.850;8.924;2022-12-13T10:59:49;95976.53;;;-2.87;73.13
10135;BME280;5107;48.850;8.924;2022-12-13T11:02:35;95989.19;;;-3.09;73.25
10135;BME280;5107;48.850;8.924;2022-12-13T11:05:25;95983.94;;;-2.95;73.44
10135;BME280;5107;48.850;8.924;2022-12-13T11:07:54;95980.22;;;-2.91;73.78
10135;BME280;5107;48.850;8.924;2022-12-13T11:10:25;95976.47;;;-2.74;73.18
10135;BME280;5107;48.850;8.924;2022-12-13T11:12:58;95977.72;;;-2.80;72.63
10135;BME280;5107;48.850;8.924;2022-12-13T11:15:28;95977.75;;;-2.92;72.77
10135;BME280;5107;48.850;8.924;2022-12-13T11:17:59;95974.88;;;-2.88;72.49
10135;BME280;5107;48.850;8.924;2022-12-13T11:20:31;95964.81;;;-2.67;72.52
10135;BME280;5107;48.850;8.924;2022-12-13T11:23:04;95962.56;;;-2.72;70.92
10135;BME280;5107;48.850;8.924;2022-12-13T11:25:38;95960.03;;;-2.84;71.52
10135;BME280;5107;48.850;8.924;2022-12-13T11:28:23;95955.88;;;-2.74;71.49
10135;BME280;5107;48.850;8.924;2022-12-13T11:31:08;95957.50;;;-2.60;71.45
10135;BME280;5107;48.850;8.924;2022-12-13T11:33:46;95950.53;;;-2.47;70.67
10135;BME280;5107;48.850;8.924;2022-12-13T11:36:30;95939.66;;;-2.27;71.44
10135;BME280;5107;48.850;8.924;2022-12-13T11:39:15;95943.16;;;-2.28;69.80
10135;BME280;5107;48.850;8.924;2022-12-13T11:41:51;95936.25;;;-2.51;71.48
10135;BME280;5107;48.850;8.924;2022-12-13T11:44:28;95938.44;;;-2.58;72.00
10135;BME280;5107;48.850;8.924;2022-12-13T11:47:01;95945.97;;;-2.68;71.68
10135;BME280;5107;48.850;8.924;2022-12-13T11:49:37;95948.84;;;-2.59;71.88
10135;BME280;5107;48.850;8.924;2022-12-13T11:52:12;95959.53;;;-2.53;72.40
10135;BME280;5107;48.850;8.924;2022-12-13T11:54:49;95949.72;;;-2.72;72.71
10135;BME280;5107;48.850;8.924;2022-12-13T11:57:40;95947.41;;;-2.63;72.79
10135;BME280;5107;48.850;8.924;2022-12-13T12:00:27;95951.91;;;-2.54;71.95
10135;BME280;5107;48.850;8.924;2022-12-13T12:03:05;95949.50;;;-2.69;72.00
10135;BME280;5107;48.850;8.924;2022-12-13T12:05:36;95942.72;;;-2.70;71.84
10135;BME280;5107;48.850;8.924;2022-12-13T12:08:17;95933.78;;;-2.53;72.48
10135;BME280;5107;48.850;8.924;2022-12-13T12:10:53;95931.19;;;-2.29;72.43
10135;BME280;5107;48.850;8.924;2022-12-13T12:13:29;95930.44;;;-2.18;70.08
10135;BME280;5107;48.850;8.924;2022-12-13T12:16:09;95925.19;;;-2.06;69.16
10135;BME280;5107;48.850;8.924;2022-12-13T12:18:39;95930.63;;;-2.21;68.42
10135;BME280;5107;48.850;8.924;2022-12-13T12:21:19;95927.25;;;-2.22;69.89
10135;BME280;5107;48.850;8.924;2022-12-13T12:24:02;95928.41;;;-2.26;70.12
10135;BME280;5107;48.850;8.924;2022-12-13T12:26:39;95926.06;;;-2.29;69.91
10135;BME280;5107;48.850;8.924;2022-12-13T12:29:40;95913.06;;;-2.27;70.14
10135;BME280;5107;48.850;8.924;2022-12-13T12:32:32;95914.84;;;-2.17;70.35
10135;BME280;5107;48.850;8.924;2022-12-13T12:41:29;95913.25;;;-2.07;69.32
10135;BME280;5107;48.850;8.924;2022-12-13T12:44:09;95906.56;;;-2.09;68.99
10135;BME280;5107;48.850;8.924;2022-12-13T12:46:57;95911.13;;;-2.13;68.45
10135;BME280;5107;48.850;8.924;2022-12-13T12:50:07;95911.63;;;-2.32;69.27
10135;BME280;5107;48.850;8.924;2022-12-13T12:52:53;95917.34;;;-2.39;69.91
10135;BME280;5107;48.850;8.924;2022-12-13T12:55:36;95912.91;;;-2.37;69.76
10135;BME280;5107;48.850;8.924;2022-12-13T12:58:13;95911.47;;;-2.41;69.35
10135;BME280;5107;48.850;8.924;2022-12-13T13:00:54;95913.63;;;-2.35;70.60
10135;BME280;5107;48.850;8.924;2022-12-13T13:03:28;95911.44;;;-2.17;70.19
10135;BME280;5107;48.850;8.924;2022-12-13T13:06:00;95905.03;;;-2.01;69.44
10135;BME280;5107;48.850;8.924;2022-12-13T13:08:34;95909.44;;;-1.79;68.21
10135;BME280;5107;48.850;8.924;2022-12-13T13:11:04;95908.03;;;-1.83;68.28
10135;BME280;5107;48.850;8.924;2022-12-13T13:13:35;95899.25;;;-1.80;68.04
10135;BME280;5107;48.850;8.924;2022-12-13T13:16:05;95898.66;;;-1.73;68.14
10135;BME280;5107;48.850;8.924;2022-12-13T13:18:48;95886.56;;;-1.83;67.30
10135;BME280;5107;48.850;8.924;2022-12-13T13:21:31;95886.06;;;-2.00;68.00
10135;BME280;5107;48.850;8.924;2022-12-13T13:24:09;95880.50;;;-2.28;68.36
10135;BME280;5107;48.850;8.924;2022-12-13T13:26:40;95879.59;;;-2.16;69.24
10135;BME280;5107;48.850;8.924;2022-12-13T13:29:30;95887.22;;;-2.15;68.59
10135;BME280;5107;48.850;8.924;2022-12-13T13:32:02;95884.56;;;-2.02;69.60
10135;BME280;5107;48.850;8.924;2022-12-13T13:34:34;95883.44;;;-1.87;69.16
10135;BME280;5107;48.850;8.924;2022-12-13T13:37:03;95887.28;;;-1.93;68.86
10135;BME280;5107;48.850;8.924;2022-12-13T13:39:55;95884.78;;;-2.05;68.92